createdAt,value
2023-04-25T00:00:50.211Z,17.85
2023-04-25T00:03:19.963Z,21.67
2023-04-25T00:05:52.933Z,12.57
2023-04-25T00:08:26.007Z,15.85
2023-04-25T00:10:56.137Z,14.88
2023-04-25T00:13:34.584Z,13.20
2023-04-25T00:16:05.611Z,12.18
2023-04-25T00:18:40.830Z,11.88
2023-04-25T00:21:21.007Z,14.23
2023-04-25T00:23:51.036Z,13.95
2023-04-25T00:26:22.453Z,15.77
2023-04-25T00:29:02.809Z,16.70
2023-04-25T00:31:39.565Z,15.60
2023-04-25T00:34:11.795Z,11.60
2023-04-25T00:36:42.950Z,15.90
2023-04-25T00:39:10.504Z,12.27
2023-04-25T00:41:38.960Z,16.83
2023-04-25T00:44:27.805Z,17.20
2023-04-25T00:47:12.630Z,16.77
2023-04-25T00:49:47.500Z,19.83
2023-04-25T00:52:20.047Z,18.60
2023-04-25T00:54:47.323Z,13.25
2023-04-25T00:57:17.208Z,14.57
2023-04-25T00:59:56.161Z,17.17
2023-04-25T01:02:33.118Z,20.50
2023-04-25T01:05:02.756Z,17.10
2023-04-25T01:07:32.762Z,15.02
2023-04-25T01:10:02.583Z,17.83
2023-04-25T01:12:39.433Z,14.75
2023-04-25T01:15:10.387Z,19.55
2023-04-25T01:17:53.056Z,13.43
2023-04-25T01:20:23.922Z,16.92
2023-04-25T01:22:54.445Z,14.48
2023-04-25T01:27:51.183Z,15.23
2023-04-25T01:30:26.952Z,18.88
2023-04-25T01:32:57.064Z,19.40
2023-04-25T01:37:50.194Z,16.60
2023-04-25T01:40:24.047Z,17.55
2023-04-25T01:43:03.416Z,21.00
2023-04-25T01:45:30.923Z,14.45
2023-04-25T01:48:03.049Z,19.05
2023-04-25T01:50:32.505Z,13.52
2023-04-25T01:53:06.238Z,19.52
2023-04-25T01:55:44.305Z,29.73
2023-04-25T01:58:16.692Z,20.95
2023-04-25T02:00:44.048Z,14.60
2023-04-25T02:03:23.181Z,22.75
2023-04-25T02:11:07.566Z,21.17
2023-04-25T02:13:37.189Z,15.02
2023-04-25T02:18:49.802Z,24.17
2023-04-25T02:21:20.009Z,17.45
2023-04-25T02:23:50.016Z,25.65
2023-04-25T02:26:20.328Z,19.00
2023-04-25T02:28:47.576Z,17.90
2023-04-25T02:31:17.158Z,18.23
2023-04-25T02:33:44.795Z,34.00
2023-04-25T02:36:14.250Z,22.73
2023-04-25T02:38:47.571Z,21.98
2023-04-25T02:41:15.008Z,25.30
2023-04-25T02:43:47.318Z,29.20
2023-04-25T02:46:32.163Z,19.73
2023-04-25T02:49:12.940Z,23.42
2023-04-25T02:51:45.268Z,18.15
2023-04-25T02:54:16.976Z,26.15
2023-04-25T02:56:46.726Z,21.88
2023-04-25T02:59:17.437Z,22.20
2023-04-25T03:04:14.242Z,19.13
2023-04-25T03:06:44.672Z,19.85
2023-04-25T03:09:12.226Z,16.60
2023-04-25T03:11:40.684Z,14.13
2023-04-25T03:14:07.950Z,22.77
2023-04-25T03:16:38.587Z,19.70
2023-04-25T03:21:54.315Z,16.05
2023-04-25T03:24:27.567Z,22.67
2023-04-25T03:27:07.321Z,20.23
2023-04-25T03:29:53.361Z,22.83
2023-04-25T03:32:21.593Z,27.08
2023-04-25T03:34:51.473Z,24.95
2023-04-25T03:37:23.161Z,17.17
2023-04-25T03:39:50.512Z,24.77
2023-04-25T03:42:26.761Z,25.40
2023-04-25T03:44:56.179Z,17.48
2023-04-25T03:47:25.869Z,20.88
2023-04-25T03:49:55.803Z,17.80
2023-04-25T03:52:24.143Z,20.15
2023-04-25T03:54:51.587Z,21.35
2023-04-25T03:57:26.535Z,23.33
2023-04-25T03:59:53.785Z,25.55
2023-04-25T04:02:24.095Z,33.78
2023-04-25T04:04:51.644Z,17.30
2023-04-25T04:07:19.117Z,17.38
2023-04-25T04:09:50.394Z,25.27
2023-04-25T04:12:17.669Z,21.08
2023-04-25T04:14:47.853Z,21.75
2023-04-25T04:17:23.236Z,28.40
2023-04-25T04:19:54.863Z,27.60
2023-04-25T04:22:29.666Z,27.50
2023-04-25T04:25:13.238Z,18.30
2023-04-25T04:27:48.852Z,16.33
2023-04-25T04:30:17.538Z,21.88
2023-04-25T04:32:44.728Z,19.70
2023-04-25T04:35:12.075Z,20.67
2023-04-25T04:37:43.566Z,17.20
2023-04-25T04:43:10.216Z,21.08
2023-04-25T04:45:49.515Z,24.95
2023-04-25T04:48:16.833Z,27.02
2023-04-25T04:51:01.532Z,32.75
2023-04-25T04:53:31.493Z,17.75
2023-04-25T04:56:00.321Z,22.50
2023-04-25T04:58:46.562Z,25.40
2023-04-25T05:01:21.620Z,27.17
2023-04-25T05:03:49.255Z,23.73
2023-04-25T05:06:23.390Z,27.15
2023-04-25T05:09:03.135Z,26.10
2023-04-25T05:11:38.421Z,16.80
2023-04-25T05:14:14.753Z,22.83
2023-04-25T05:16:45.477Z,17.60
2023-04-25T05:19:22.961Z,17.83
2023-04-25T05:21:52.532Z,29.92
2023-04-25T05:24:26.644Z,17.70
2023-04-25T05:26:59.051Z,22.00
2023-04-25T05:29:31.432Z,21.92
2023-04-25T05:32:01.827Z,19.58
2023-04-25T05:34:31.766Z,25.55
2023-04-25T05:37:01.582Z,17.30
2023-04-25T05:39:32.656Z,21.85
2023-04-25T05:42:04.535Z,26.08
2023-04-25T05:44:33.390Z,27.17
2023-04-25T05:47:08.424Z,19.98
2023-04-25T05:49:40.920Z,26.92
2023-04-25T05:52:18.359Z,20.35
2023-04-25T05:54:50.167Z,29.65
2023-04-25T05:57:29.038Z,27.15
2023-04-25T06:00:03.280Z,28.27
2023-04-25T06:02:33.378Z,17.90
2023-04-25T06:05:04.757Z,17.92
2023-04-25T06:07:55.419Z,23.15
2023-04-25T06:10:28.912Z,18.25
2023-04-25T06:12:56.176Z,25.25
2023-04-25T06:15:30.957Z,20.60
2023-04-25T06:18:03.948Z,25.92
2023-04-25T06:20:34.307Z,19.23
2023-04-25T06:23:03.866Z,30.95
2023-04-25T06:25:38.370Z,24.92
2023-04-25T06:28:12.957Z,26.77
2023-04-25T06:30:51.892Z,28.25
2023-04-25T06:33:22.639Z,28.85
2023-04-25T06:35:56.523Z,35.92
2023-04-25T06:38:33.831Z,22.55
2023-04-25T06:41:07.302Z,28.83
2023-04-25T06:43:49.449Z,29.10
2023-04-25T06:46:19.361Z,28.48
2023-04-25T06:48:55.170Z,30.15
2023-04-25T06:51:34.953Z,29.63
2023-04-25T06:54:07.694Z,23.27
2023-04-25T06:56:47.847Z,27.95
2023-04-25T06:59:36.034Z,24.48
2023-04-25T07:02:19.404Z,34.03
2023-04-25T07:04:56.530Z,19.10
2023-04-25T07:07:29.012Z,23.67
2023-04-25T07:10:02.192Z,26.20
2023-04-25T07:12:29.281Z,25.05
2023-04-25T07:14:56.464Z,17.20
2023-04-25T07:17:23.647Z,35.10
2023-04-25T07:19:50.810Z,21.73
2023-04-25T07:22:18.586Z,26.23
2023-04-25T07:24:49.529Z,26.70
2023-04-25T07:27:16.829Z,20.13
2023-04-25T07:29:45.028Z,28.05
2023-04-25T07:32:14.448Z,20.23
2023-04-25T07:34:42.581Z,22.73
2023-04-25T07:37:09.882Z,25.42
2023-04-25T07:39:38.208Z,14.27
2023-04-25T07:42:07.141Z,24.05
2023-04-25T07:44:39.593Z,20.88
2023-04-25T07:47:10.286Z,17.48
2023-04-25T07:52:06.989Z,19.35
2023-04-25T07:54:35.533Z,20.17
2023-04-25T07:57:05.744Z,17.98
2023-04-25T07:59:32.890Z,17.27
2023-04-25T08:02:00.297Z,15.18
2023-04-25T08:04:28.863Z,21.17
2023-04-25T08:06:56.112Z,15.73
2023-04-25T08:09:26.115Z,19.58
2023-04-25T08:11:53.466Z,17.70
2023-04-25T08:14:20.797Z,22.67
2023-04-25T08:16:48.392Z,14.43
2023-04-25T08:19:15.559Z,12.30
2023-04-25T08:21:43.092Z,15.85
2023-04-25T08:24:10.128Z,16.08
2023-04-25T08:26:38.359Z,12.95
2023-04-25T08:29:06.515Z,18.48
2023-04-25T08:31:34.135Z,21.77
2023-04-25T08:34:01.701Z,12.65
2023-04-25T08:41:27.243Z,11.43
2023-04-25T08:43:55.017Z,9.93
2023-04-25T08:46:22.236Z,18.75
2023-04-25T08:48:49.848Z,15.27
2023-04-25T08:51:22.954Z,18.02
2023-04-25T08:53:54.004Z,9.23
2023-04-25T08:56:25.893Z,11.65
2023-04-25T08:58:53.257Z,17.17
2023-04-25T09:01:20.661Z,16.10
2023-04-25T09:03:48.877Z,18.27
2023-04-25T09:06:17.357Z,14.00
2023-04-25T09:08:44.580Z,11.45
2023-04-25T09:11:11.643Z,11.25
2023-04-25T09:13:38.825Z,13.07
2023-04-25T09:16:05.896Z,15.10
2023-04-25T09:18:34.132Z,12.13
2023-04-25T09:21:14.217Z,16.13
2023-04-25T09:23:53.088Z,6.03
2023-04-25T09:26:23.926Z,11.18
2023-04-25T09:28:53.720Z,13.60
2023-04-25T09:31:25.653Z,6.82
2023-04-25T09:34:01.155Z,8.32
2023-04-25T09:36:29.209Z,11.40
2023-04-25T09:38:57.088Z,15.52
2023-04-25T09:41:30.006Z,11.65
2023-04-25T09:44:04.955Z,9.00
2023-04-25T09:46:37.507Z,10.63
2023-04-25T09:49:08.185Z,10.43
2023-04-25T09:51:35.441Z,11.15
2023-04-25T09:54:02.500Z,10.50
2023-04-25T09:56:31.284Z,7.65
2023-04-25T09:58:58.437Z,7.53
2023-04-25T10:01:26.753Z,7.10
2023-04-25T10:03:55.237Z,14.13
2023-04-25T10:06:24.302Z,13.45
2023-04-25T10:08:52.684Z,11.50
2023-04-25T10:11:20.136Z,12.65
2023-04-25T10:13:49.010Z,10.07
2023-04-25T10:16:17.310Z,7.05
2023-04-25T10:18:51.652Z,11.07
2023-04-25T10:21:19.454Z,11.43
2023-04-25T10:24:14.980Z,9.57
2023-04-25T10:29:30.661Z,8.20
2023-04-25T10:31:58.557Z,10.27
2023-04-25T10:34:27.263Z,5.78
2023-04-25T10:36:54.660Z,8.98
2023-04-25T10:39:25.405Z,12.32
2023-04-25T10:41:59.852Z,8.00
2023-04-25T10:44:31.276Z,8.63
2023-04-25T10:46:59.214Z,5.78
2023-04-25T10:49:33.786Z,13.52
2023-04-25T10:52:18.162Z,11.40
2023-04-25T10:54:45.471Z,12.27
2023-04-25T10:57:28.718Z,7.22
2023-04-25T10:59:56.260Z,17.65
2023-04-25T11:02:28.612Z,10.05
2023-04-25T11:04:56.521Z,13.38
2023-04-25T11:07:30.112Z,8.43
2023-04-25T11:09:57.430Z,11.90
2023-04-25T11:12:31.455Z,11.65
2023-04-25T11:15:05.439Z,10.75
2023-04-25T11:17:32.897Z,14.80
2023-04-25T11:20:00.288Z,10.98
2023-04-25T11:22:29.082Z,14.95
2023-04-25T11:24:56.415Z,13.70
2023-04-25T11:30:32.650Z,10.35
2023-04-25T11:33:00.077Z,7.95
2023-04-25T11:35:34.774Z,6.80
2023-04-25T11:38:02.937Z,10.15
2023-04-25T11:40:32.177Z,10.77
2023-04-25T11:43:01.746Z,8.82
2023-04-25T11:45:29.725Z,7.43
2023-04-25T11:47:56.928Z,9.77
2023-04-25T11:50:24.135Z,17.15
2023-04-25T11:53:35.871Z,11.07
2023-04-25T11:56:03.487Z,10.82
2023-04-25T11:58:31.248Z,15.05
2023-04-25T12:01:00.458Z,11.10
2023-04-25T12:03:32.358Z,12.15
2023-04-25T12:06:31.956Z,13.98
2023-04-25T12:09:12.311Z,9.05
2023-04-25T12:15:47.282Z,8.20
2023-04-25T12:18:15.202Z,4.55
2023-04-25T12:21:07.651Z,10.52
2023-04-25T12:23:36.306Z,4.13
2023-04-25T12:26:15.050Z,9.25
2023-04-25T12:29:23.333Z,6.65
2023-04-25T12:35:12.421Z,6.68
2023-04-25T12:40:49.249Z,9.45
2023-04-25T12:43:21.133Z,13.05
2023-04-25T12:48:49.732Z,8.98
2023-04-25T12:51:26.192Z,12.30
2023-04-25T12:53:55.278Z,8.70
2023-04-25T12:56:33.055Z,10.90
2023-04-25T12:59:00.460Z,11.48
2023-04-25T13:01:27.716Z,8.50
2023-04-25T13:03:58.155Z,8.50
2023-04-25T13:06:30.528Z,8.45
2023-04-25T13:09:00.102Z,4.30
2023-04-25T13:11:27.298Z,10.52
2023-04-25T13:13:54.601Z,11.00
2023-04-25T13:16:31.858Z,12.07
2023-04-25T13:20:34.670Z,9.23
2023-04-25T13:21:58.192Z,7.72
2023-04-25T13:24:25.629Z,11.25
2023-04-25T13:26:52.781Z,7.38
2023-04-25T13:29:20.128Z,9.10
2023-04-25T13:31:47.341Z,13.85
2023-04-25T13:34:14.509Z,9.82
2023-04-25T13:36:41.689Z,8.32
2023-04-25T13:39:08.823Z,9.45
2023-04-25T13:41:42.018Z,9.25
2023-04-25T13:44:09.246Z,5.10
2023-04-25T13:46:46.466Z,11.48
2023-04-25T13:49:14.832Z,14.15
2023-04-25T13:51:43.121Z,7.53
2023-04-25T13:54:10.333Z,6.53
2023-04-25T13:56:40.688Z,4.90
2023-04-25T13:59:12.028Z,7.53
2023-04-25T14:01:42.627Z,11.15
2023-04-25T14:04:15.261Z,10.98
2023-04-25T14:06:42.514Z,7.00
2023-04-25T14:09:11.284Z,7.95
2023-04-25T14:11:39.971Z,9.95
2023-04-25T14:17:03.331Z,8.82
2023-04-25T14:19:46.362Z,9.60
2023-04-25T14:22:20.165Z,7.20
2023-04-25T14:24:56.336Z,7.57
2023-04-25T14:27:37.641Z,9.38
2023-04-25T14:30:11.038Z,10.50
2023-04-25T14:32:40.514Z,5.40
2023-04-25T14:35:10.419Z,6.28
2023-04-25T14:37:42.926Z,9.90
2023-04-25T14:40:11.863Z,14.18
2023-04-25T14:42:59.638Z,8.68
2023-04-25T14:45:35.362Z,4.95
2023-04-25T14:48:13.527Z,4.53
2023-04-25T14:53:38.102Z,8.07
2023-04-25T14:56:18.294Z,5.30
2023-04-25T14:58:49.256Z,8.02
2023-04-25T15:01:18.494Z,6.78
2023-04-25T15:03:48.536Z,5.00
2023-04-25T15:06:29.887Z,5.38
2023-04-25T15:08:59.771Z,12.82
2023-04-25T15:11:32.976Z,8.68
2023-04-25T15:14:03.225Z,5.78
2023-04-25T15:16:43.400Z,5.18
2023-04-25T15:19:21.034Z,4.18
2023-04-25T15:21:51.491Z,6.38
2023-04-25T15:24:30.128Z,6.13
2023-04-25T15:26:57.571Z,5.40
2023-04-25T15:29:50.234Z,7.47
2023-04-25T15:32:31.117Z,4.82
2023-04-25T15:34:58.891Z,3.88
2023-04-25T15:37:29.371Z,3.45
2023-04-25T15:45:26.505Z,3.15
2023-04-25T15:48:02.019Z,8.48
2023-04-25T15:50:34.038Z,10.18
2023-04-25T15:53:09.789Z,5.18
2023-04-25T15:55:45.046Z,4.60
2023-04-25T15:58:14.743Z,4.68
2023-04-25T16:00:46.498Z,3.22
2023-04-25T16:03:16.452Z,10.73
2023-04-25T16:05:51.440Z,5.38
2023-04-25T16:08:25.674Z,8.40
2023-04-25T16:10:59.150Z,5.28
2023-04-25T16:13:31.889Z,7.72
2023-04-25T16:16:10.456Z,5.25
2023-04-25T16:18:37.733Z,7.60
2023-04-25T16:23:53.747Z,4.97
2023-04-25T16:26:24.154Z,7.03
2023-04-25T16:31:21.237Z,6.75
2023-04-25T16:34:05.577Z,4.43
2023-04-25T16:36:35.881Z,6.55
2023-04-25T16:39:09.685Z,4.53
2023-04-25T16:41:37.030Z,5.35
2023-04-25T16:44:07.781Z,3.08
2023-04-25T16:46:35.504Z,4.57
2023-04-25T16:49:15.312Z,7.20
2023-04-25T16:51:46.826Z,4.22
2023-04-25T16:54:13.970Z,6.60
2023-04-25T16:56:58.718Z,4.45
2023-04-25T16:59:31.614Z,4.18
2023-04-25T17:02:03.055Z,7.50
2023-04-25T17:04:30.503Z,4.95
2023-04-25T17:06:59.935Z,4.43
2023-04-25T17:09:28.801Z,6.32
2023-04-25T17:11:59.840Z,4.15
2023-04-25T17:14:27.990Z,3.40
2023-04-25T17:16:55.652Z,5.28
2023-04-25T17:19:26.220Z,3.53
2023-04-25T17:21:58.795Z,6.47
2023-04-25T17:24:31.337Z,3.67
2023-04-25T17:26:58.728Z,3.72
2023-04-25T17:29:32.959Z,4.97
2023-04-25T17:32:02.350Z,5.38
2023-04-25T17:34:32.038Z,6.10
2023-04-25T17:37:13.433Z,3.53
2023-04-25T17:39:43.334Z,3.92
2023-04-25T17:44:52.476Z,2.33
2023-04-25T17:47:28.225Z,7.68
2023-04-25T17:50:01.321Z,7.50
2023-04-25T17:52:33.788Z,8.20
2023-04-25T17:55:03.622Z,6.57
2023-04-25T17:57:35.923Z,5.30
2023-04-25T18:00:07.836Z,7.90
2023-04-25T18:02:36.664Z,3.45
2023-04-25T18:05:09.909Z,4.78
2023-04-25T18:07:47.500Z,7.63
2023-04-25T18:10:17.528Z,11.27
2023-04-25T18:12:59.092Z,5.43
2023-04-25T18:15:37.434Z,5.63
2023-04-25T18:18:14.710Z,5.57
2023-04-25T18:20:45.979Z,4.00
2023-04-25T18:23:17.089Z,4.45
2023-04-25T18:25:45.791Z,10.50
2023-04-25T18:28:15.581Z,8.50
2023-04-25T18:30:47.097Z,5.82
2023-04-25T18:33:18.446Z,6.72
2023-04-25T18:35:57.573Z,4.60
2023-04-25T18:41:06.216Z,9.48
2023-04-25T18:43:45.629Z,4.82
2023-04-25T18:46:12.904Z,6.63
2023-04-25T18:48:40.737Z,10.50
2023-04-25T18:51:11.160Z,5.10
2023-04-25T18:53:40.321Z,6.35
2023-04-25T18:56:10.665Z,5.47
2023-04-25T18:58:37.925Z,4.68
2023-04-25T19:01:07.878Z,6.30
2023-04-25T19:03:44.876Z,6.47
2023-04-25T19:06:35.579Z,9.70
2023-04-25T19:09:06.851Z,6.15
2023-04-25T19:11:35.987Z,5.50
2023-04-25T19:14:05.738Z,6.15
2023-04-25T19:16:40.259Z,5.22
2023-04-25T19:19:08.724Z,5.45
2023-04-25T19:21:36.297Z,9.77
2023-04-25T19:24:05.080Z,5.93
2023-04-25T19:26:39.968Z,4.50
2023-04-25T19:29:20.375Z,6.10
2023-04-25T19:31:48.083Z,7.97
2023-04-25T19:34:25.828Z,8.10
2023-04-25T19:36:58.200Z,6.55
2023-04-25T19:39:34.098Z,11.63
2023-04-25T19:42:07.806Z,5.88
2023-04-25T19:44:40.501Z,7.22
2023-04-25T19:47:15.696Z,11.60
2023-04-25T19:49:51.014Z,6.43
2023-04-25T19:52:18.259Z,8.80
2023-04-25T19:54:45.685Z,4.65
2023-04-25T19:57:19.422Z,7.47
2023-04-25T19:59:53.306Z,6.75
2023-04-25T20:02:22.227Z,6.07
2023-04-25T20:04:49.769Z,4.60
2023-04-25T20:07:31.785Z,4.97
2023-04-25T20:10:09.332Z,9.10
2023-04-25T20:12:43.091Z,8.65
2023-04-25T20:15:19.379Z,6.63
2023-04-25T20:17:51.349Z,5.85
2023-04-25T20:22:59.708Z,8.40
2023-04-25T20:25:30.665Z,6.97
2023-04-25T20:27:58.002Z,8.63
2023-04-25T20:30:25.363Z,8.52
2023-04-25T20:32:57.282Z,6.65
2023-04-25T20:35:29.088Z,8.73
2023-04-25T20:37:57.054Z,9.35
2023-04-25T20:40:30.457Z,6.20
2023-04-25T20:43:02.199Z,10.82
2023-04-25T20:45:34.572Z,6.38
2023-04-25T20:48:13.315Z,10.65
2023-04-25T20:50:43.416Z,11.90
2023-04-25T20:53:10.637Z,6.28
2023-04-25T20:55:41.919Z,17.20
2023-04-25T20:58:12.927Z,14.23
2023-04-25T21:00:42.960Z,7.05
2023-04-25T21:03:12.016Z,6.75
2023-04-25T21:05:45.887Z,7.00
2023-04-25T21:08:40.697Z,9.20
2023-04-25T21:11:13.949Z,7.70
2023-04-25T21:13:52.496Z,6.40
2023-04-25T21:16:19.843Z,10.38
2023-04-25T21:18:47.169Z,10.73
2023-04-25T21:21:19.847Z,9.95
2023-04-25T21:23:47.610Z,6.30
2023-04-25T21:26:17.420Z,10.10
2023-04-25T21:28:47.337Z,14.27
2023-04-25T21:31:19.298Z,10.40
2023-04-25T21:33:49.463Z,12.18
2023-04-25T21:36:19.107Z,8.90
2023-04-25T21:38:48.433Z,10.18
2023-04-25T21:41:15.579Z,13.23
2023-04-25T21:43:47.651Z,9.48
2023-04-25T21:46:23.376Z,11.88
2023-04-25T21:48:52.796Z,6.07
2023-04-25T21:51:27.056Z,12.75
2023-04-25T21:53:59.383Z,7.03
2023-04-25T21:56:31.975Z,9.95
2023-04-25T21:58:59.326Z,9.07
2023-04-25T22:01:34.275Z,10.35
2023-04-25T22:04:01.732Z,14.88
2023-04-25T22:06:29.491Z,9.55
2023-04-25T22:09:06.555Z,11.65
2023-04-25T22:11:36.663Z,15.68
2023-04-25T22:14:04.814Z,9.57
2023-04-25T22:16:36.211Z,12.63
2023-04-25T22:19:07.218Z,11.75
2023-04-25T22:21:42.900Z,6.47
2023-04-25T22:24:10.204Z,12.40
2023-04-25T22:26:43.005Z,6.05
2023-04-25T22:29:13.639Z,12.50
2023-04-25T22:31:44.014Z,11.38
2023-04-25T22:34:13.443Z,13.30
2023-04-25T22:36:47.832Z,9.45
2023-04-25T22:39:19.338Z,6.38
2023-04-25T22:41:54.173Z,15.88
2023-04-25T22:44:22.430Z,8.02
2023-04-25T22:46:59.743Z,5.32
2023-04-25T22:49:27.020Z,10.85
2023-04-25T22:51:55.545Z,7.93
2023-04-25T22:54:26.364Z,7.43
2023-04-25T22:57:00.783Z,10.95
2023-04-25T22:59:42.694Z,14.32
2023-04-25T23:02:10.579Z,10.70
2023-04-25T23:04:40.598Z,7.97
2023-04-25T23:07:10.540Z,10.25
2023-04-25T23:09:46.762Z,12.40
2023-04-25T23:12:25.413Z,7.60
2023-04-25T23:14:58.041Z,8.70
2023-04-25T23:17:27.318Z,10.32
2023-04-25T23:20:02.723Z,9.15
2023-04-25T23:22:29.964Z,6.63
2023-04-25T23:25:10.652Z,10.20
2023-04-25T23:30:09.398Z,6.50
2023-04-25T23:32:39.573Z,8.43
2023-04-25T23:35:13.273Z,11.68
2023-04-25T23:37:50.610Z,10.18
2023-04-25T23:40:20.457Z,7.00
2023-04-25T23:42:50.706Z,7.22
2023-04-25T23:45:17.987Z,11.13
2023-04-25T23:47:48.035Z,12.93
2023-04-25T23:50:22.958Z,13.32
2023-04-25T23:52:57.346Z,8.15
2023-04-25T23:55:27.276Z,6.75
2023-04-25T23:57:57.087Z,12.65
